Time;durP1;ratioP1;P1;durP2;ratioP2;P2;SDS_P1;SDS_P2;PMS_P1;PMS_P2;Temp;Humidity;BMP_temperature;BMP_pressure;BME280_temperature;BME280_humidity;BME280_pressure;Samples;Min_cycle;Max_cycle;Signal;HPM_P1;HPM_P2
2023/09/13 00:01:41;;;;;;;46.88;28.63;;;;;;;17.94;100.00;101111.44;5124452;28;20032;-96
2023/09/13 00:04:06;;;;;;;46.80;26.80;;;;;;;17.90;100.00;101102.09;5125488;28;20045;-96
2023/09/13 00:06:32;;;;;;;46.33;27.85;;;;;;;17.91;100.00;101106.47;5124703;28;20467;-96
2023/09/13 00:08:57;;;;;;;46.33;28.07;;;;;;;17.96;100.00;101103.81;5121356;28;20028;-96
2023/09/13 00:11:28;;;;;;;45.53;28.73;;;;;;;17.92;100.00;101106.22;5120451;28;20036;-96
2023/09/13 00:13:56;;;;;;;43.45;27.90;;;;;;;17.92;100.00;101105.41;5104643;28;20235;-96
2023/09/13 00:16:22;;;;;;;43.22;27.20;;;;;;;17.94;100.00;101105.94;5120957;28;20034;-96
2023/09/13 00:18:47;;;;;;;42.30;26.63;;;;;;;17.87;100.00;101114.38;5121788;28;20020;-95
2023/09/13 00:21:20;;;;;;;43.50;26.67;;;;;;;17.86;100.00;101109.97;5133039;28;20032;-94
2023/09/13 00:23:49;;;;;;;45.58;27.52;;;;;;;17.85;100.00;101109.16;5138081;28;20095;-94
2023/09/13 00:26:17;;;;;;;51.00;28.37;;;;;;;17.78;100.00;101104.94;5122006;28;20031;-95
2023/09/13 00:28:45;;;;;;;48.63;29.00;;;;;;;17.77;100.00;101106.03;5139444;28;20024;-95
2023/09/13 00:31:11;;;;;;;46.00;28.73;;;;;;;17.70;100.00;101103.47;5122105;28;20036;-94
2023/09/13 00:33:41;;;;;;;49.93;29.33;;;;;;;17.67;100.00;101110.31;5136092;28;20037;-95
2023/09/13 00:36:10;;;;;;;57.83;31.60;;;;;;;17.65;100.00;101109.72;5132438;28;20039;-95
2023/09/13 00:38:35;;;;;;;54.65;30.67;;;;;;;17.63;100.00;101106.44;5132337;28;20024;-95
2023/09/13 00:41:03;;;;;;;51.67;30.73;;;;;;;17.64;100.00;101115.47;5130464;28;20052;-96
2023/09/13 00:43:31;;;;;;;51.97;31.42;;;;;;;17.65;100.00;101108.91;5114167;28;20024;-96
2023/09/13 00:45:57;;;;;;;53.60;31.02;;;;;;;17.68;100.00;101122.94;5128670;28;20032;-96
2023/09/13 00:48:24;;;;;;;56.85;32.30;;;;;;;17.64;100.00;101112.72;5108919;28;20051;-93
2023/09/13 00:50:53;;;;;;;51.60;30.23;;;;;;;17.63;100.00;101108.34;5124755;28;20051;-96
2023/09/13 00:53:23;;;;;;;59.90;31.90;;;;;;;17.63;100.00;101111.09;5104812;28;20391;-95
2023/09/13 00:55:50;;;;;;;55.75;31.60;;;;;;;17.65;100.00;101114.41;5121463;28;20387;-95
2023/09/13 00:58:18;;;;;;;59.03;32.85;;;;;;;17.64;100.00;101115.47;5121990;28;20024;-95
2023/09/13 01:00:46;;;;;;;61.85;33.50;;;;;;;17.64;100.00;101107.25;5121334;28;20468;-95
2023/09/13 01:03:19;;;;;;;64.87;33.53;;;;;;;17.65;100.00;101107.00;5102657;28;20035;-95
2023/09/13 01:05:46;;;;;;;64.30;32.90;;;;;;;17.67;100.00;101110.31;5118936;28;20033;-95
2023/09/13 01:08:15;;;;;;;65.03;34.50;;;;;;;17.66;100.00;101110.59;5118026;28;20038;-95
2023/09/13 01:10:41;;;;;;;65.63;35.45;;;;;;;17.66;100.00;101107.84;5117548;28;20126;-96
2023/09/13 01:13:06;;;;;;;64.23;35.73;;;;;;;17.64;100.00;101113.59;5117249;28;20070;-95
2023/09/13 01:15:53;;;;;;;66.18;36.15;;;;;;;17.62;100.00;101110.25;5117048;28;20119;-95
2023/09/13 01:18:32;;;;;;;65.77;34.77;;;;;;;17.58;100.00;101109.09;5116965;28;20528;-95
2023/09/13 01:21:22;;;;;;;68.35;37.05;;;;;;;17.56;100.00;101104.97;5116721;28;20016;-96
2023/09/13 01:24:05;;;;;;;66.57;34.85;;;;;;;17.57;100.00;101109.34;5117108;28;20027;-95
2023/09/13 01:26:56;;;;;;;73.32;37.13;;;;;;;17.51;100.00;101103.81;5116693;28;20559;-96
2023/09/13 01:29:28;;;;;;;71.78;37.13;;;;;;;17.50;100.00;101101.34;5116402;28;20039;-96
2023/09/13 01:31:54;;;;;;;78.53;37.03;;;;;;;17.47;100.00;101107.34;5116664;28;20053;-95
2023/09/13 01:34:19;;;;;;;73.63;38.22;;;;;;;17.47;100.00;101124.63;5117183;28;20031;-96
2023/09/13 01:36:45;;;;;;;80.60;39.83;;;;;;;17.43;100.00;101117.16;5117204;28;20019;-95
2023/09/13 01:39:12;;;;;;;76.90;38.03;;;;;;;17.41;100.00;101117.41;5116136;28;20361;-96
2023/09/13 01:41:45;;;;;;;86.55;42.00;;;;;;;17.35;100.00;101116.50;5098289;28;20070;-96
2023/09/13 01:44:17;;;;;;;85.35;40.95;;;;;;;17.37;100.00;101116.25;5115777;28;20078;-95
2023/09/13 01:46:45;;;;;;;87.50;42.30;;;;;;;17.35;100.00;101111.03;5116250;28;20391;-95
2023/09/13 01:49:15;;;;;;;90.10;42.22;;;;;;;17.38;100.00;101114.31;5116492;28;20474;-95
2023/09/13 01:51:48;;;;;;;91.80;43.13;;;;;;;17.32;100.00;101122.50;5116256;28;20031;-95
2023/09/13 01:54:17;;;;;;;97.97;45.42;;;;;;;17.30;100.00;101130.16;5116461;28;20077;-96
2023/09/13 01:56:46;;;;;;;91.10;43.97;;;;;;;17.23;100.00;101124.03;5116724;28;20463;-96
2023/09/13 01:59:11;;;;;;;96.10;44.37;;;;;;;17.22;100.00;101136.06;5116392;28;20039;-96
2023/09/13 02:01:37;;;;;;;106.10;48.08;;;;;;;17.18;100.00;101127.53;5099547;28;20024;-96
2023/09/13 02:04:04;;;;;;;105.87;46.70;;;;;;;17.18;100.00;101135.75;5115991;28;20023;-96
2023/09/13 02:06:30;;;;;;;108.82;48.03;;;;;;;17.14;100.00;101136.50;5115504;28;20023;-96
2023/09/13 02:08:58;;;;;;;111.23;50.00;;;;;;;17.10;100.00;101129.88;5115460;28;20035;-96
2023/09/13 02:11:26;;;;;;;115.43;49.08;;;;;;;17.09;100.00;101142.75;5115130;28;20051;-96
2023/09/13 02:13:54;;;;;;;118.70;50.08;;;;;;;17.13;100.00;101146.63;5115496;28;20076;-96
2023/09/13 02:16:29;;;;;;;125.30;52.47;;;;;;;17.18;100.00;101149.47;5115555;28;20026;-96
2023/09/13 02:18:57;;;;;;;126.20;52.78;;;;;;;17.24;100.00;101146.78;5115596;28;20378;-96
2023/09/13 02:21:23;;;;;;;131.05;52.33;;;;;;;17.27;100.00;101147.13;5114083;28;20391;-95
2023/09/13 02:23:48;;;;;;;128.07;54.50;;;;;;;17.28;100.00;101146.03;5114867;28;20023;-96
2023/09/13 02:26:21;;;;;;;135.73;55.63;;;;;;;17.26;100.00;101156.44;5114639;28;20031;-96
2023/09/13 02:28:47;;;;;;;133.82;54.55;;;;;;;17.25;100.00;101149.28;5115581;28;20043;-96
2023/09/13 02:31:16;;;;;;;134.57;54.87;;;;;;;17.27;100.00;101157.25;5115148;28;20023;-96
2023/09/13 02:33:43;;;;;;;139.30;55.00;;;;;;;17.30;100.00;101151.25;5115172;28;20031;-96
2023/09/13 02:36:09;;;;;;;144.60;57.30;;;;;;;17.31;100.00;101153.75;5097936;28;20035;-96
2023/09/13 02:38:34;;;;;;;141.43;54.47;;;;;;;17.33;100.00;101154.34;5114686;28;20028;-96
2023/09/13 02:41:00;;;;;;;133.40;54.30;;;;;;;17.36;100.00;101155.72;5114837;28;20027;-96
2023/09/13 02:43:26;;;;;;;139.82;56.53;;;;;;;17.37;100.00;101157.38;5114056;28;20028;-96
2023/09/13 02:45:54;;;;;;;139.27;56.07;;;;;;;17.34;100.00;101153.22;5114918;28;20179;-96
2023/09/13 02:48:22;;;;;;;136.13;53.83;;;;;;;17.31;100.00;101155.66;5098025;28;20491;-96
2023/09/13 02:50:50;;;;;;;127.40;51.97;;;;;;;17.26;100.00;101159.16;5114509;28;20039;-96
2023/09/13 02:53:15;;;;;;;122.47;52.13;;;;;;;17.22;100.00;101154.44;5098222;28;20031;-96
2023/09/13 02:55:43;;;;;;;135.18;51.25;;;;;;;17.21;100.00;101159.09;5114127;28;20030;-96
2023/09/13 02:58:16;;;;;;;126.35;50.28;;;;;;;17.20;100.00;101157.44;5115189;28;20030;-96
2023/09/13 03:00:44;;;;;;;120.43;50.90;;;;;;;17.17;100.00;101149.72;5110093;28;20494;-96
2023/09/13 03:03:10;;;;;;;122.78;50.53;;;;;;;17.15;100.00;101160.09;5114690;28;20042;-96
2023/09/13 03:05:36;;;;;;;124.68;50.22;;;;;;;17.15;100.00;101160.91;5097286;28;20036;-96
2023/09/13 03:08:03;;;;;;;120.43;49.83;;;;;;;17.12;100.00;101166.09;5114029;28;20452;-96
2023/09/13 03:10:37;;;;;;;132.10;51.97;;;;;;;17.10;100.00;101168.25;5114311;28;20111;-95
2023/09/13 03:13:05;;;;;;;123.00;50.97;;;;;;;17.10;100.00;101168.25;5113759;28;20051;-96
2023/09/13 03:15:34;;;;;;;132.38;51.83;;;;;;;17.12;100.00;101166.91;5114006;28;20024;-96
2023/09/13 03:18:00;;;;;;;131.65;50.38;;;;;;;17.11;100.00;101164.41;5114081;28;20051;-95
2023/09/13 03:20:26;;;;;;;126.38;50.05;;;;;;;17.11;100.00;101172.63;5114163;28;20432;-96
2023/09/13 03:22:58;;;;;;;125.63;51.27;;;;;;;17.12;100.00;101171.56;5113897;28;20028;-96
2023/09/13 03:25:24;;;;;;;125.70;51.45;;;;;;;17.09;100.00;101170.16;5114360;28;20037;-95
2023/09/13 03:27:49;;;;;;;134.13;50.97;;;;;;;17.10;100.00;101165.53;5096407;28;20035;-96
2023/09/13 03:30:17;;;;;;;124.32;49.72;;;;;;;17.11;100.00;101172.63;5114085;28;20020;-96
2023/09/13 03:32:43;;;;;;;125.40;48.60;;;;;;;17.08;100.00;101174.00;5113720;28;20040;-96
2023/09/13 03:35:08;;;;;;;123.88;51.22;;;;;;;17.08;100.00;101178.63;5113848;28;20027;-96
2023/09/13 03:37:35;;;;;;;130.93;50.90;;;;;;;17.10;100.00;101181.97;5113538;28;20423;-96
2023/09/13 03:40:05;;;;;;;133.52;52.75;;;;;;;17.14;100.00;101191.31;5097097;28;20036;-96
2023/09/13 03:42:30;;;;;;;123.90;49.35;;;;;;;17.17;100.00;101179.88;5113340;28;20032;-96
2023/09/13 03:44:56;;;;;;;123.70;49.43;;;;;;;17.23;100.00;101187.09;5113696;28;20035;-96
2023/09/13 03:47:21;;;;;;;126.10;50.03;;;;;;;17.24;100.00;101185.19;5113424;28;20098;-96
2023/09/13 03:49:47;;;;;;;127.05;49.88;;;;;;;17.28;100.00;101181.69;5113799;28;20043;-96
2023/09/13 03:52:13;;;;;;;125.63;49.77;;;;;;;17.30;100.00;101187.75;5114081;28;20031;-96
2023/09/13 03:54:38;;;;;;;120.90;50.07;;;;;;;17.29;100.00;101186.09;5113629;28;20042;-96
2023/09/13 03:57:04;;;;;;;120.30;49.42;;;;;;;17.29;100.00;101180.59;5096650;28;20023;-96
2023/09/13 03:59:29;;;;;;;123.77;49.27;;;;;;;17.31;100.00;101178.44;5096274;28;20043;-96
2023/09/13 04:01:55;;;;;;;113.00;47.67;;;;;;;17.33;100.00;101187.25;5113619;28;20073;-96
2023/09/13 04:04:21;;;;;;;114.95;48.53;;;;;;;17.30;100.00;101174.03;5096508;28;20032;-96
2023/09/13 04:06:48;;;;;;;114.70;48.00;;;;;;;17.32;100.00;101177.34;5113311;28;20395;-96
2023/09/13 04:09:16;;;;;;;112.45;47.30;;;;;;;17.32;100.00;101173.78;5096854;28;20067;-96
2023/09/13 04:11:47;;;;;;;109.85;47.60;;;;;;;17.27;100.00;101176.44;5113205;28;20028;-96
2023/09/13 04:14:13;;;;;;;96.93;45.42;;;;;;;17.27;100.00;101185.53;5113520;28;20080;-96
2023/09/13 04:16:41;;;;;;;99.93;45.17;;;;;;;17.25;100.00;101179.44;5114323;28;20024;-96
2023/09/13 04:19:06;;;;;;;97.47;45.83;;;;;;;17.27;100.00;101182.78;5097124;28;20035;-96
2023/09/13 04:21:32;;;;;;;101.20;44.03;;;;;;;17.24;100.00;101183.25;5096733;28;20043;-95
2023/09/13 04:23:58;;;;;;;100.07;43.80;;;;;;;17.24;100.00;101185.19;5113390;28;20039;-94
2023/09/13 04:26:26;;;;;;;101.25;44.75;;;;;;;17.18;100.00;101181.53;5113509;28;20467;-96
2023/09/13 04:28:52;;;;;;;113.80;46.35;;;;;;;17.21;100.00;101186.50;5113459;28;20020;-95
2023/09/13 04:31:23;;;;;;;104.17;43.57;;;;;;;17.21;100.00;101191.97;5113186;28;20045;-95
2023/09/13 04:33:55;;;;;;;106.85;45.00;;;;;;;17.19;100.00;101194.97;5096659;28;20040;-95
2023/09/13 04:36:23;;;;;;;100.70;42.95;;;;;;;17.21;100.00;101191.97;5113715;28;20097;-95
2023/09/13 04:38:51;;;;;;;102.00;42.58;;;;;;;17.21;100.00;101191.97;5112143;28;20047;-95
2023/09/13 04:41:24;;;;;;;102.73;42.93;;;;;;;17.21;100.00;101191.16;5096062;28;20039;-95
2023/09/13 04:43:53;;;;;;;104.35;43.70;;;;;;;17.20;100.00;101187.59;5097012;28;20126;-95
2023/09/13 04:46:20;;;;;;;96.97;42.28;;;;;;;17.23;100.00;101186.25;5117290;28;20046;-96
2023/09/13 04:48:47;;;;;;;104.72;42.60;;;;;;;17.25;100.00;101195.06;5117306;28;20395;-96
2023/09/13 04:51:21;;;;;;;93.20;40.95;;;;;;;17.22;100.00;101192.84;5116350;28;20031;-96
2023/09/13 04:53:49;;;;;;;91.27;41.93;;;;;;;17.23;100.00;101189.84;5099884;28;20035;-96
2023/09/13 04:56:20;;;;;;;93.85;39.80;;;;;;;17.24;100.00;101198.88;5116906;28;20055;-96
2023/09/13 04:58:46;;;;;;;91.57;41.42;;;;;;;17.24;100.00;101185.19;5116819;28;20031;-96
2023/09/13 05:01:11;;;;;;;86.05;40.35;;;;;;;17.25;100.00;101193.16;5116596;28;20110;-96
2023/09/13 05:03:40;;;;;;;89.70;40.17;;;;;;;17.22;100.00;101199.13;5116519;28;20118;-96
2023/09/13 05:06:15;;;;;;;84.78;39.22;;;;;;;17.20;100.00;101204.06;5117536;28;20032;-95
2023/09/13 05:08:41;;;;;;;88.25;39.63;;;;;;;17.19;100.00;101205.13;5116740;28;20055;-96
2023/09/13 05:11:07;;;;;;;90.83;39.97;;;;;;;17.14;100.00;101211.38;5116414;28;20502;-95
2023/09/13 05:13:33;;;;;;;89.78;39.95;;;;;;;17.15;100.00;101214.94;5115977;28;20016;-95
2023/09/13 05:15:58;;;;;;;88.90;39.90;;;;;;;17.15;100.00;101212.19;5116346;28;20096;-96
2023/09/13 05:18:31;;;;;;;86.13;38.17;;;;;;;17.15;100.00;101204.78;5116355;28;20027;-95
2023/09/13 05:20:58;;;;;;;84.47;40.63;;;;;;;17.16;100.00;101202.88;5116200;28;20029;-96
2023/09/13 05:23:24;;;;;;;78.33;38.07;;;;;;;17.11;100.00;101197.31;5115977;28;20046;-94
2023/09/13 05:25:58;;;;;;;83.93;38.63;;;;;;;17.02;100.00;101202.38;5117942;28;20118;-92
2023/09/13 05:29:07;;;;;;;86.57;39.65;;;;;;;16.96;100.00;101198.75;5115657;28;20479;-92
2023/09/13 05:31:55;;;;;;;80.00;37.43;;;;;;;16.95;100.00;101199.81;5116101;28;20040;-92
2023/09/13 05:34:20;;;;;;;89.10;40.25;;;;;;;16.93;100.00;101195.66;5114871;28;20481;-95
2023/09/13 05:36:49;;;;;;;85.93;39.25;;;;;;;16.90;100.00;101209.88;5115732;28;20475;-94
2023/09/13 05:39:46;;;;;;;;;;;;;;;;;;;;;
2023/09/13 05:42:56;;;;;;;87.97;39.58;;;;;;;17.02;100.00;101218.84;5055640;28;20155;-96
2023/09/13 05:45:32;;;;;;;84.60;39.65;;;;;;;17.08;100.00;101225.22;5048909;28;20042;-92
2023/09/13 05:49:00;;;;;;;;;;;;;;;;;;;;;
2023/09/13 06:01:24;;;;;;;69.95;35.78;;;;;;;17.35;100.00;101248.16;5052973;28;20044;-87
2023/09/13 06:03:50;;;;;;;73.97;36.30;;;;;;;17.34;100.00;101249.22;5020163;28;20033;-88
2023/09/13 06:06:15;;;;;;;78.03;38.40;;;;;;;17.32;100.00;101253.31;5035499;28;20436;-87
2023/09/13 06:08:41;;;;;;;81.43;37.40;;;;;;;17.29;100.00;101254.63;5052897;28;20112;-87
2023/09/13 06:11:07;;;;;;;70.72;35.33;;;;;;;17.28;100.00;101257.63;5036356;28;20091;-87
2023/09/13 06:13:33;;;;;;;75.03;35.87;;;;;;;17.25;100.00;101253.47;5112895;28;20043;-88
2023/09/13 06:15:58;;;;;;;74.80;36.17;;;;;;;17.25;100.00;101261.69;5113816;28;20035;-88
2023/09/13 06:18:24;;;;;;;69.53;35.23;;;;;;;17.26;100.00;101263.38;5115024;28;20028;-87
2023/09/13 06:20:49;;;;;;;68.47;34.77;;;;;;;17.31;100.00;101263.44;5097258;28;20055;-88
2023/09/13 06:23:37;;;;;;;65.97;33.43;;;;;;;17.38;100.00;101270.66;5113335;28;20029;-87
2023/09/13 06:26:05;;;;;;;63.05;32.70;;;;;;;17.39;100.00;101275.91;5113752;28;20043;-88
2023/09/13 06:28:33;;;;;;;62.38;32.30;;;;;;;17.39;100.00;101272.31;5113401;28;20027;-86
2023/09/13 06:31:02;;;;;;;68.53;32.75;;;;;;;17.39;100.00;101278.66;5115341;28;20028;-87
2023/09/13 06:33:27;;;;;;;66.30;33.40;;;;;;;17.49;100.00;101286.19;5115099;28;20032;-87
2023/09/13 06:35:56;;;;;;;67.03;33.13;;;;;;;17.57;100.00;101287.69;5113720;28;20429;-86
2023/09/13 06:38:23;;;;;;;64.40;32.58;;;;;;;17.59;100.00;101286.34;5114721;28;20032;-87
2023/09/13 06:40:50;;;;;;;63.90;33.03;;;;;;;17.62;100.00;101287.78;5113162;28;20024;-87
2023/09/13 06:43:18;;;;;;;61.13;32.70;;;;;;;17.67;100.00;101294.16;5113781;28;20031;-87
2023/09/13 06:45:43;;;;;;;56.63;31.10;;;;;;;17.76;100.00;101305.53;5113656;28;20153;-87
2023/09/13 06:48:09;;;;;;;54.87;28.07;;;;;;;17.74;100.00;101299.47;5112954;28;20079;-88
2023/09/13 06:54:01;;;;;;;60.85;29.60;;;;;;;17.83;100.00;101303.44;5114446;28;20077;-87
2023/09/13 06:56:27;;;;;;;53.40;31.13;;;;;;;17.85;100.00;101312.25;5112924;28;20104;-86
2023/09/13 06:58:55;;;;;;;58.03;31.87;;;;;;;17.88;100.00;101303.50;5096201;28;20032;-86
2023/09/13 07:01:20;;;;;;;64.10;33.33;;;;;;;17.95;100.00;101308.88;5096463;28;20316;-86
2023/09/13 07:03:46;;;;;;;60.97;32.33;;;;;;;18.03;100.00;101311.16;5113223;28;20118;-87
2023/09/13 07:06:17;;;;;;;57.43;31.70;;;;;;;18.15;100.00;101316.53;5095582;28;20031;-88
2023/09/13 07:08:43;;;;;;;63.42;32.40;;;;;;;18.18;100.00;101321.50;5113854;28;20028;-87
2023/09/13 07:11:09;;;;;;;55.07;29.67;;;;;;;18.26;100.00;101324.88;5113556;28;20174;-87
2023/09/13 07:13:34;;;;;;;57.63;32.38;;;;;;;18.41;100.00;101328.66;5113055;28;20027;-87
2023/09/13 07:15:59;;;;;;;56.53;31.37;;;;;;;18.54;100.00;101329.34;5114218;28;20027;-87
2023/09/13 07:18:25;;;;;;;53.17;31.07;;;;;;;18.58;100.00;101327.75;5114259;28;20031;-87
2023/09/13 07:20:51;;;;;;;55.55;30.83;;;;;;;18.70;100.00;101324.84;5113066;28;20059;-87
2023/09/13 07:23:16;;;;;;;55.47;30.47;;;;;;;18.82;100.00;101322.78;5078801;28;20391;-87
2023/09/13 07:25:42;;;;;;;53.97;29.60;;;;;;;18.98;100.00;101323.78;5112671;28;20067;-87
2023/09/13 07:28:07;;;;;;;54.63;30.60;;;;;;;19.13;100.00;101328.59;5096032;28;20027;-87
2023/09/13 07:30:33;;;;;;;47.47;28.13;;;;;;;19.35;100.00;101334.00;5112833;28;20118;-88
2023/09/13 07:32:59;;;;;;;47.07;28.77;;;;;;;19.44;100.00;101334.38;5113192;28;20027;-87
2023/09/13 07:35:25;;;;;;;48.00;28.80;;;;;;;19.53;100.00;101340.22;5112791;28;20047;-85
2023/09/13 07:37:56;;;;;;;53.08;28.35;;;;;;;19.39;100.00;101343.41;5095625;28;20050;-87
2023/09/13 07:40:21;;;;;;;49.30;29.60;;;;;;;19.26;100.00;101352.09;5113017;28;20451;-86
2023/09/13 07:42:47;;;;;;;47.60;28.33;;;;;;;19.09;100.00;101346.75;5114537;28;20031;-86
2023/09/13 07:45:16;;;;;;;48.83;27.53;;;;;;;18.88;100.00;101346.53;5114270;28;20035;-86
2023/09/13 07:47:41;;;;;;;48.28;28.48;;;;;;;18.72;100.00;101351.00;5112323;28;20092;-86
2023/09/13 07:50:27;;;;;;;51.83;29.73;;;;;;;18.58;100.00;101349.72;5112435;28;20056;-86
2023/09/13 07:52:53;;;;;;;49.60;28.30;;;;;;;18.53;100.00;101358.75;5114352;28;20032;-84
2023/09/13 07:55:18;;;;;;;21.87;14.13;;;;;;;18.44;100.00;101368.53;5095848;28;20035;-83
2023/09/13 07:57:43;;;;;;;18.60;10.33;;;;;;;18.26;100.00;101371.59;5095860;28;20493;-83
2023/09/13 08:00:09;;;;;;;10.33;6.80;;;;;;;18.14;100.00;101386.25;5095656;28;20309;-79
2023/09/13 08:02:35;;;;;;;6.67;4.10;;;;;;;18.08;100.00;101381.78;5112643;28;20041;-79
2023/09/13 08:05:00;;;;;;;6.88;3.63;;;;;;;18.13;100.00;101395.59;5112577;28;20078;-79
2023/09/13 08:07:26;;;;;;;4.97;2.50;;;;;;;18.16;100.00;101397.81;5113431;28;20040;-79
2023/09/13 08:09:51;;;;;;;3.97;2.77;;;;;;;18.14;100.00;101389.00;5095989;28;20093;-79
2023/09/13 08:12:16;;;;;;;3.23;1.70;;;;;;;18.23;100.00;101406.72;5095495;28;20074;-79
2023/09/13 08:14:42;;;;;;;5.10;1.70;;;;;;;18.36;100.00;101404.69;5112350;28;20032;-79
2023/09/13 08:17:07;;;;;;;3.83;2.03;;;;;;;18.50;100.00;101416.97;5095430;28;20032;-79
2023/09/13 08:19:32;;;;;;;3.90;1.77;;;;;;;18.61;100.00;101423.41;5097344;28;20448;-79
2023/09/13 08:21:58;;;;;;;4.77;1.47;;;;;;;18.81;100.00;101433.84;5099766;28;20035;-79
2023/09/13 08:24:24;;;;;;;2.88;1.30;;;;;;;18.97;100.00;101428.53;5117141;28;20043;-79
2023/09/13 08:26:49;;;;;;;4.97;1.17;;;;;;;19.13;100.00;101432.28;5115932;28;20035;-79
2023/09/13 08:29:15;;;;;;;2.25;1.30;;;;;;;19.40;100.00;101437.78;5099332;28;20111;-79
2023/09/13 08:31:40;;;;;;;2.07;1.47;;;;;;;19.56;100.00;101447.88;5099073;28;20494;-79
2023/09/13 08:34:05;;;;;;;2.23;1.00;;;;;;;19.79;100.00;101456.88;5082196;28;20024;-79
2023/09/13 08:36:33;;;;;;;2.40;1.00;;;;;;;19.96;100.00;101459.47;5116384;28;20081;-79
2023/09/13 08:38:58;;;;;;;2.00;1.15;;;;;;;19.93;100.00;101477.38;5099239;28;20036;-79
2023/09/13 08:41:24;;;;;;;2.27;1.00;;;;;;;19.84;100.00;101469.88;5082116;28;20172;-82
2023/09/13 08:43:52;;;;;;;1.40;0.82;;;;;;;19.71;100.00;101482.09;5115985;28;20189;-82
2023/09/13 08:46:19;;;;;;;1.10;0.80;;;;;;;19.66;100.00;101484.81;5115883;28;20055;-82
2023/09/13 08:48:46;;;;;;;1.58;0.93;;;;;;;19.66;100.00;101493.09;5115593;28;20059;-82
2023/09/13 08:51:13;;;;;;;1.98;0.80;;;;;;;19.57;100.00;101490.78;5116040;28;20027;-82
2023/09/13 08:53:40;;;;;;;1.80;0.90;;;;;;;19.55;100.00;101505.94;5117046;28;20073;-82
2023/09/13 08:56:09;;;;;;;2.50;0.90;;;;;;;19.69;100.00;101503.56;5115507;28;20039;-82
2023/09/13 08:58:35;;;;;;;1.67;1.10;;;;;;;19.89;100.00;101514.81;5115470;28;20031;-82
2023/09/13 09:01:04;;;;;;;1.52;0.90;;;;;;;20.05;100.00;101514.91;5115723;28;20042;-82
2023/09/13 09:03:30;;;;;;;2.80;0.60;;;;;;;20.08;100.00;101529.00;5116997;28;20032;-82
2023/09/13 09:05:58;;;;;;;2.42;0.90;;;;;;;20.31;100.00;101532.47;5082431;28;20122;-82
2023/09/13 09:08:25;;;;;;;1.27;0.77;;;;;;;20.60;97.96;101538.47;5116902;28;20140;-82
2023/09/13 09:10:52;;;;;;;2.30;0.90;;;;;;;20.87;96.30;101542.25;5115832;28;20122;-82
2023/09/13 09:13:20;;;;;;;2.78;0.85;;;;;;;21.01;97.03;101541.47;5116274;28;20032;-82
2023/09/13 09:15:46;;;;;;;2.07;0.97;;;;;;;21.05;94.73;101536.25;5115330;28;20028;-82
2023/09/13 09:18:12;;;;;;;1.75;0.90;;;;;;;21.03;93.30;101557.75;5115534;28;20478;-82
2023/09/13 09:20:39;;;;;;;1.55;0.80;;;;;;;20.79;94.76;101555.44;5098397;28;20032;-82
2023/09/13 09:23:06;;;;;;;0.85;0.73;;;;;;;20.69;94.82;101558.13;5098246;28;20454;-82
2023/09/13 09:25:32;;;;;;;1.77;0.70;;;;;;;20.54;94.02;101566.28;5098414;28;20096;-82
2023/09/13 09:27:57;;;;;;;1.70;0.80;;;;;;;20.55;94.49;101570.69;5116324;28;20451;-82
2023/09/13 09:30:31;;;;;;;1.20;0.80;;;;;;;20.73;94.71;101564.78;5114562;28;20063;-82
2023/09/13 09:33:09;;;;;;;2.43;1.73;;;;;;;20.92;93.56;101572.59;5115172;28;20270;-82
2023/09/13 09:35:36;;;;;;;2.83;0.95;;;;;;;21.01;89.63;101579.28;5100125;28;20027;-82
2023/09/13 09:38:01;;;;;;;3.15;0.82;;;;;;;21.07;89.76;101582.88;5116871;28;20058;-81
2023/09/13 09:40:27;;;;;;;1.87;0.80;;;;;;;21.18;89.48;101579.88;5114971;28;20027;-79
2023/09/13 09:42:53;;;;;;;2.55;0.82;;;;;;;21.35;88.07;101573.34;5114894;28;20032;-80
2023/09/13 09:45:20;;;;;;;4.30;0.90;;;;;;;21.52;87.29;101582.25;5114811;28;20031;-79
2023/09/13 09:47:46;;;;;;;1.60;0.80;;;;;;;21.86;85.65;101580.94;5098561;28;20039;-80
2023/09/13 09:50:13;;;;;;;2.30;0.90;;;;;;;22.17;85.06;101589.28;5097695;28;20399;-80
2023/09/13 09:52:39;;;;;;;1.63;0.80;;;;;;;22.26;81.62;101587.59;5114988;28;20413;-80
2023/09/13 09:55:04;;;;;;;2.93;0.80;;;;;;;22.55;79.53;101585.13;5115531;28;20020;-80
2023/09/13 09:57:31;;;;;;;1.75;1.00;;;;;;;22.97;78.19;101577.56;5115760;28;20414;-80
2023/09/13 09:59:58;;;;;;;2.40;1.00;;;;;;;23.33;76.85;101590.50;5097674;28;20036;-80
2023/09/13 10:02:28;;;;;;;1.73;0.83;;;;;;;23.64;75.92;101583.69;5097493;28;20130;-80
2023/09/13 10:04:53;;;;;;;4.32;0.98;;;;;;;23.75;74.66;101573.34;5115630;28;20097;-80
2023/09/13 10:07:18;;;;;;;1.70;1.00;;;;;;;23.86;74.20;101581.63;5097304;28;20051;-80
2023/09/13 10:09:46;;;;;;;1.60;0.95;;;;;;;23.87;72.35;101586.88;5097234;28;20382;-80
2023/09/13 10:12:13;;;;;;;1.97;0.90;;;;;;;23.52;73.37;101604.50;5114542;28;20043;-81
2023/09/13 10:14:44;;;;;;;1.30;0.82;;;;;;;23.09;74.18;101596.63;5096975;28;20039;-80
2023/09/13 10:17:10;;;;;;;2.85;0.98;;;;;;;22.91;75.39;101604.44;5097760;28;20032;-80
2023/09/13 10:19:36;;;;;;;1.52;0.90;;;;;;;22.97;76.38;101601.66;5097007;28;20122;-80
2023/09/13 10:22:02;;;;;;;3.40;1.10;;;;;;;23.25;74.67;101598.28;5114013;28;20076;-80
2023/09/13 10:24:38;;;;;;;2.40;1.08;;;;;;;23.62;74.75;101610.84;5113868;28;20023;-80
2023/09/13 10:27:07;;;;;;;3.58;1.27;;;;;;;23.69;73.96;101616.06;5113937;28;20023;-80
2023/09/13 10:29:43;;;;;;;1.67;1.00;;;;;;;23.54;75.09;101616.97;5113883;28;20118;-82
2023/09/13 10:32:13;;;;;;;1.53;1.13;;;;;;;23.56;74.17;101609.22;5113841;28;20035;-82
2023/09/13 10:34:52;;;;;;;2.95;1.25;;;;;;;23.56;75.23;101616.69;5113587;28;20035;-82
2023/09/13 10:37:39;;;;;;;1.25;0.90;;;;;;;23.93;76.55;101620.94;5114303;28;20023;-82
2023/09/13 10:40:21;;;;;;;1.90;1.20;;;;;;;24.41;74.85;101628.63;5114562;28;20055;-82
2023/09/13 10:42:48;;;;;;;2.20;1.00;;;;;;;24.71;69.44;101635.84;5113449;28;20059;-82
2023/09/13 10:45:18;;;;;;;2.77;1.00;;;;;;;24.72;68.75;101634.75;5096828;28;20076;-82
2023/09/13 10:47:47;;;;;;;2.38;1.38;;;;;;;24.65;67.83;101637.03;5113352;28;20110;-80
2023/09/13 10:50:14;;;;;;;2.95;2.40;;;;;;;24.49;67.95;101658.50;5113473;28;20097;-81
2023/09/13 10:52:41;;;;;;;2.38;1.27;;;;;;;24.21;68.27;101651.78;5114101;28;20078;-81
2023/09/13 10:55:08;;;;;;;2.03;1.33;;;;;;;23.87;69.00;101653.38;5113766;28;20027;-81
2023/09/13 10:57:34;;;;;;;1.47;1.10;;;;;;;23.83;70.04;101649.53;5097321;28;20024;-81
2023/09/13 11:00:00;;;;;;;2.13;1.08;;;;;;;23.63;70.35;101653.22;5115463;28;20032;-81
2023/09/13 11:02:27;;;;;;;1.50;1.00;;;;;;;23.47;70.75;101658.84;5096360;28;20038;-81
2023/09/13 11:04:52;;;;;;;2.30;1.20;;;;;;;23.29;70.80;101664.97;5114829;28;20088;-81
2023/09/13 11:07:18;;;;;;;2.10;1.07;;;;;;;23.24;71.84;101665.81;5113568;28;20035;-82
2023/09/13 11:09:45;;;;;;;1.70;1.10;;;;;;;23.29;70.76;101660.25;5114308;28;20281;-83
2023/09/13 11:12:12;;;;;;;2.17;1.10;;;;;;;23.53;69.22;101667.91;5096307;28;20028;-83
2023/09/13 11:14:46;;;;;;;1.45;1.00;;;;;;;23.90;70.33;101668.63;5114078;28;20032;-83
2023/09/13 11:17:37;;;;;;;2.17;1.00;;;;;;;24.32;71.58;101670.84;5114067;28;20023;-83
2023/09/13 11:20:21;;;;;;;1.80;1.10;;;;;;;26.24;68.19;101673.19;5096974;28;20042;-83
2023/09/13 11:23:10;;;;;;;1.63;0.90;;;;;;;28.91;60.22;101679.94;5112975;28;20039;-83
2023/09/13 11:25:54;;;;;;;5.53;1.25;;;;;;;29.24;56.08;101679.66;5113362;28;20134;-83
2023/09/13 11:28:38;;;;;;;2.40;1.20;;;;;;;28.65;57.08;101692.63;5113862;28;20468;-81
2023/09/13 11:31:13;;;;;;;1.60;1.20;;;;;;;27.41;53.94;101683.41;5112955;28;20484;-81